Time;durP1;ratioP1;P1;durP2;ratioP2;P2;SDS_P1;SDS_P2;PMS_P1;PMS_P2;Temp;Humidity;BMP_temperature;BMP_pressure;BME280_temperature;BME280_humidity;BME280_pressure;Samples;Min_cycle;Max_cycle;Signal;HPM_P1;HPM_P2
2021/11/29 00:00:24;;;;;;;1.05;0.80;;;;;;;;;;5045041;28;20036;-77
2021/11/29 00:02:52;;;;;;;1.33;1.23;;;;;;;;;;5041304;28;20391;-77
2021/11/29 00:05:19;;;;;;;0.93;0.90;;;;;;;;;;5029404;28;20041;-77
2021/11/29 00:07:45;;;;;;;0.73;0.70;;;;;;;;;;5035809;28;20463;-77
2021/11/29 00:10:11;;;;;;;0.73;0.73;;;;;;;;;;5033046;28;20021;-77
2021/11/29 00:12:37;;;;;;;1.00;0.85;;;;;;;;;;5034872;28;20025;-77
2021/11/29 00:15:04;;;;;;;0.88;0.88;;;;;;;;;;5035865;28;20056;-77
2021/11/29 00:17:29;;;;;;;0.95;0.80;;;;;;;;;;5040394;28;20057;-78
2021/11/29 00:19:55;;;;;;;0.30;0.30;;;;;;;;;;5032741;28;20108;-77
2021/11/29 00:22:21;;;;;;;1.08;0.70;;;;;;;;;;5033859;28;20051;-77
2021/11/29 00:24:47;;;;;;;0.85;0.85;;;;;;;;;;5036471;28;20025;-77
2021/11/29 00:27:13;;;;;;;0.65;0.65;;;;;;;;;;5040590;28;20407;-77
2021/11/29 00:29:42;;;;;;;0.38;0.38;;;;;;;;;;5031213;28;20403;-77
2021/11/29 00:32:08;;;;;;;1.13;1.02;;;;;;;;;;5042273;28;20032;-77
2021/11/29 00:34:34;;;;;;;1.90;1.42;;;;;;;;;;5033319;28;20029;-76
2021/11/29 00:37:00;;;;;;;2.45;2.08;;;;;;;;;;5035918;28;20044;-76
2021/11/29 00:39:26;;;;;;;4.25;1.83;;;;;;;;;;5030814;28;20044;-76
2021/11/29 00:41:52;;;;;;;1.40;1.30;;;;;;;;;;5044552;28;20083;-76
2021/11/29 00:44:18;;;;;;;0.90;0.85;;;;;;;;;;5032840;28;20021;-76
2021/11/29 00:46:44;;;;;;;0.47;0.47;;;;;;;;;;5037162;28;20025;-77
2021/11/29 00:49:10;;;;;;;1.40;1.30;;;;;;;;;;5035404;28;20361;-76
2021/11/29 00:51:36;;;;;;;0.43;0.43;;;;;;;;;;5039753;28;20037;-76
2021/11/29 00:54:01;;;;;;;0.40;0.40;;;;;;;;;;5040574;28;20048;-76
2021/11/29 00:56:28;;;;;;;2.63;1.58;;;;;;;;;;5039276;28;20029;-76
2021/11/29 00:58:54;;;;;;;0.80;0.80;;;;;;;;;;5030727;28;20026;-78
2021/11/29 01:01:20;;;;;;;4.47;1.60;;;;;;;;;;5028730;28;20480;-76
2021/11/29 01:03:45;;;;;;;2.83;1.42;;;;;;;;;;5031215;28;20025;-77
2021/11/29 01:06:11;;;;;;;0.65;0.65;;;;;;;;;;5037382;28;20026;-76
2021/11/29 01:08:37;;;;;;;1.35;1.25;;;;;;;;;;5034783;28;20041;-78
2021/11/29 01:11:05;;;;;;;0.45;0.45;;;;;;;;;;5033945;28;20037;-78
2021/11/29 01:13:31;;;;;;;0.77;0.77;;;;;;;;;;5040318;28;20048;-77
2021/11/29 01:15:57;;;;;;;4.43;2.42;;;;;;;;;;5041003;28;20483;-77
2021/11/29 01:18:23;;;;;;;0.90;0.65;;;;;;;;;;5032074;28;20034;-77
2021/11/29 01:20:49;;;;;;;3.95;1.38;;;;;;;;;;5029939;28;20041;-77
2021/11/29 01:23:15;;;;;;;1.45;1.38;;;;;;;;;;5036917;28;20072;-77
2021/11/29 01:25:42;;;;;;;0.90;0.90;;;;;;;;;;5035253;28;20167;-77
2021/11/29 01:28:08;;;;;;;2.33;1.65;;;;;;;;;;5042563;28;20487;-77
2021/11/29 01:30:34;;;;;;;2.60;0.38;;;;;;;;;;5043249;28;20016;-76
2021/11/29 01:33:00;;;;;;;1.60;1.40;;;;;;;;;;5042512;28;20025;-76
2021/11/29 01:35:26;;;;;;;1.05;1.02;;;;;;;;;;5036367;28;20024;-76
2021/11/29 01:37:52;;;;;;;0.17;0.17;;;;;;;;;;5040230;28;20440;-77
2021/11/29 01:40:18;;;;;;;0.68;0.68;;;;;;;;;;5033319;28;20040;-77
2021/11/29 01:42:57;;;;;;;0.90;0.90;;;;;;;;;;5035763;28;20551;-77
2021/11/29 01:45:24;;;;;;;0.43;0.43;;;;;;;;;;5039124;28;20026;-77
2021/11/29 01:47:50;;;;;;;0.65;0.63;;;;;;;;;;5044798;28;20480;-76
2021/11/29 01:50:15;;;;;;;1.77;1.63;;;;;;;;;;5040218;28;20032;-77
2021/11/29 01:52:41;;;;;;;0.95;0.77;;;;;;;;;;5044850;28;20041;-77
2021/11/29 01:55:08;;;;;;;0.20;0.20;;;;;;;;;;5032324;28;20030;-79
2021/11/29 01:57:33;;;;;;;0.98;0.98;;;;;;;;;;5051135;28;20033;-76
2021/11/29 02:00:00;;;;;;;1.08;0.95;;;;;;;;;;5039379;28;20052;-79
2021/11/29 02:02:28;;;;;;;1.30;1.20;;;;;;;;;;5034473;28;20430;-78
2021/11/29 02:04:55;;;;;;;0.50;0.50;;;;;;;;;;5037040;28;20056;-76
2021/11/29 02:07:20;;;;;;;0.68;0.68;;;;;;;;;;5034717;28;20108;-76
2021/11/29 02:09:46;;;;;;;0.80;0.80;;;;;;;;;;5035537;28;20115;-78
2021/11/29 02:12:12;;;;;;;1.08;0.98;;;;;;;;;;5036742;28;20026;-76
2021/11/29 02:14:39;;;;;;;0.30;0.30;;;;;;;;;;5043182;28;20041;-76
2021/11/29 02:17:06;;;;;;;4.63;0.93;;;;;;;;;;5040989;28;20084;-76
2021/11/29 02:19:37;;;;;;;3.22;1.35;;;;;;;;;;5045596;28;20093;-76
2021/11/29 02:22:03;;;;;;;1.10;1.10;;;;;;;;;;5041003;28;20109;-76
2021/11/29 02:24:29;;;;;;;1.45;1.35;;;;;;;;;;5046360;28;20029;-78
2021/11/29 02:26:55;;;;;;;0.10;0.10;;;;;;;;;;5034837;28;20084;-77
2021/11/29 02:29:21;;;;;;;0.28;0.28;;;;;;;;;;5038652;28;20029;-77
2021/11/29 02:31:48;;;;;;;1.45;1.05;;;;;;;;;;5047908;28;20087;-77
2021/11/29 02:34:16;;;;;;;1.67;1.55;;;;;;;;;;5037678;28;20021;-76
2021/11/29 02:36:42;;;;;;;0.50;0.50;;;;;;;;;;5036012;28;20044;-76
2021/11/29 02:39:08;;;;;;;1.25;1.23;;;;;;;;;;5032447;28;20033;-77
2021/11/29 02:41:35;;;;;;;1.60;0.80;;;;;;;;;;5036419;28;20491;-77
2021/11/29 02:44:01;;;;;;;0.65;0.63;;;;;;;;;;5036056;28;20030;-77
2021/11/29 02:46:27;;;;;;;1.63;1.52;;;;;;;;;;5030225;28;20462;-77
2021/11/29 02:48:53;;;;;;;1.65;0.73;;;;;;;;;;5042187;28;20104;-77
2021/11/29 02:51:25;;;;;;;1.60;1.50;;;;;;;;;;5029978;28;20404;-77
2021/11/29 02:53:52;;;;;;;4.45;1.02;;;;;;;;;;5036070;28;20032;-79
2021/11/29 02:56:18;;;;;;;0.32;0.32;;;;;;;;;;5039825;28;20025;-78
2021/11/29 02:58:44;;;;;;;1.02;0.95;;;;;;;;;;5034357;28;20671;-77
2021/11/29 03:01:10;;;;;;;0.57;0.57;;;;;;;;;;5034298;28;20025;-76
2021/11/29 03:03:44;;;;;;;0.65;0.65;;;;;;;;;;5042535;28;20021;-77
2021/11/29 03:06:10;;;;;;;1.10;1.10;;;;;;;;;;5039283;28;20113;-78
2021/11/29 03:08:36;;;;;;;1.38;1.13;;;;;;;;;;5042985;28;20125;-77
2021/11/29 03:11:02;;;;;;;1.42;1.35;;;;;;;;;;5033288;28;20033;-78
2021/11/29 03:13:28;;;;;;;0.20;0.20;;;;;;;;;;5041309;28;20043;-77
2021/11/29 03:15:54;;;;;;;0.65;0.65;;;;;;;;;;5038791;28;20490;-78
2021/11/29 03:18:49;;;;;;;3.78;1.65;;;;;;;;;;5046825;28;20049;-78
2021/11/29 03:21:17;;;;;;;0.38;0.38;;;;;;;;;;5025657;28;20072;-77
2021/11/29 03:23:44;;;;;;;1.10;1.10;;;;;;;;;;5025991;28;20025;-77
2021/11/29 03:26:11;;;;;;;2.78;1.30;;;;;;;;;;5031442;28;20028;-77
2021/11/29 03:28:40;;;;;;;0.88;0.88;;;;;;;;;;5035708;28;20100;-77
2021/11/29 03:31:07;;;;;;;0.25;0.25;;;;;;;;;;5042781;28;20083;-77
2021/11/29 03:33:33;;;;;;;0.45;0.45;;;;;;;;;;5037773;28;20017;-77
2021/11/29 03:36:00;;;;;;;1.27;1.17;;;;;;;;;;5030260;28;20488;-77
2021/11/29 03:38:26;;;;;;;2.70;1.27;;;;;;;;;;5039480;28;20131;-77
2021/11/29 03:40:52;;;;;;;1.20;1.20;;;;;;;;;;5030888;28;20025;-77
2021/11/29 03:43:18;;;;;;;1.23;1.23;;;;;;;;;;5035879;28;20036;-77
2021/11/29 03:45:44;;;;;;;1.17;1.10;;;;;;;;;;5035103;28;20498;-78
2021/11/29 03:48:10;;;;;;;0.70;0.70;;;;;;;;;;5029750;28;20072;-78
2021/11/29 03:50:36;;;;;;;2.25;0.60;;;;;;;;;;5037348;28;20087;-78
2021/11/29 03:53:02;;;;;;;1.02;0.93;;;;;;;;;;5034032;28;20426;-77
2021/11/29 03:55:28;;;;;;;6.03;2.85;;;;;;;;;;5042411;28;20052;-78
2021/11/29 03:57:54;;;;;;;0.38;0.38;;;;;;;;;;5028048;28;20029;-77
2021/11/29 04:00:20;;;;;;;0.70;0.70;;;;;;;;;;5030686;28;20029;-77
2021/11/29 04:02:46;;;;;;;0.10;0.10;;;;;;;;;;5043375;28;20051;-77
2021/11/29 04:05:12;;;;;;;1.45;1.35;;;;;;;;;;5042688;28;20693;-77
2021/11/29 04:07:38;;;;;;;1.55;1.45;;;;;;;;;;5045245;28;20442;-78
2021/11/29 04:10:04;;;;;;;1.55;1.42;;;;;;;;;;5039656;28;20017;-78
2021/11/29 04:12:30;;;;;;;2.85;2.08;;;;;;;;;;5036081;28;20472;-77
2021/11/29 04:14:56;;;;;;;1.85;1.42;;;;;;;;;;5034742;28;20029;-78
2021/11/29 04:17:22;;;;;;;0.75;0.70;;;;;;;;;;5044245;28;20124;-77
2021/11/29 04:19:48;;;;;;;0.40;0.40;;;;;;;;;;5037751;28;20108;-77
2021/11/29 04:22:14;;;;;;;6.80;2.67;;;;;;;;;;5032241;28;20048;-77
2021/11/29 04:24:42;;;;;;;4.38;1.83;;;;;;;;;;5037091;28;20029;-77
2021/11/29 04:27:08;;;;;;;2.17;1.20;;;;;;;;;;5037912;28;20074;-77
2021/11/29 04:29:39;;;;;;;0.75;0.60;;;;;;;;;;5045083;28;20029;-77
2021/11/29 04:32:05;;;;;;;1.00;0.98;;;;;;;;;;5033315;28;20472;-77
2021/11/29 04:34:31;;;;;;;2.90;1.50;;;;;;;;;;5036597;28;20038;-76
2021/11/29 04:36:57;;;;;;;0.20;0.20;;;;;;;;;;5030615;28;20055;-77
2021/11/29 04:39:23;;;;;;;0.55;0.55;;;;;;;;;;5031415;28;20439;-77
2021/11/29 04:41:49;;;;;;;1.77;1.67;;;;;;;;;;5030298;28;20115;-77
2021/11/29 04:44:15;;;;;;;3.88;1.33;;;;;;;;;;5029033;28;20060;-77
2021/11/29 04:46:42;;;;;;;2.25;1.67;;;;;;;;;;5035440;28;20151;-77
2021/11/29 04:49:07;;;;;;;1.30;1.23;;;;;;;;;;5034544;28;20025;-77
2021/11/29 04:51:34;;;;;;;0.35;0.35;;;;;;;;;;5029676;28;20025;-77
2021/11/29 04:54:00;;;;;;;1.05;0.73;;;;;;;;;;5035343;28;20021;-77
2021/11/29 04:56:26;;;;;;;3.58;2.38;;;;;;;;;;5036591;28;20495;-77
2021/11/29 04:58:52;;;;;;;0.22;0.22;;;;;;;;;;5038460;28;20443;-77
2021/11/29 05:01:18;;;;;;;2.00;1.17;;;;;;;;;;5030928;28;20055;-77
2021/11/29 05:03:44;;;;;;;0.55;0.55;;;;;;;;;;5033920;28;20034;-77
2021/11/29 05:06:10;;;;;;;1.85;1.75;;;;;;;;;;5039447;28;20024;-76
2021/11/29 05:08:36;;;;;;;1.35;1.25;;;;;;;;;;5033112;28;20060;-77
2021/11/29 05:11:02;;;;;;;0.90;0.90;;;;;;;;;;5041649;28;20025;-77
2021/11/29 05:13:28;;;;;;;1.10;1.00;;;;;;;;;;5039787;28;20068;-77
2021/11/29 05:15:54;;;;;;;1.80;1.40;;;;;;;;;;5040390;28;20029;-77
2021/11/29 05:18:20;;;;;;;0.63;0.63;;;;;;;;;;5032160;28;21954;-77
2021/11/29 05:20:46;;;;;;;4.50;1.30;;;;;;;;;;5035971;28;20055;-77
2021/11/29 05:23:12;;;;;;;2.80;1.75;;;;;;;;;;5041955;28;20037;-77
2021/11/29 05:25:39;;;;;;;1.33;1.30;;;;;;;;;;5042302;28;20030;-77
2021/11/29 05:28:05;;;;;;;3.22;1.67;;;;;;;;;;5050860;28;20040;-77
2021/11/29 05:30:31;;;;;;;2.75;1.17;;;;;;;;;;5046086;28;20036;-76
2021/11/29 05:32:57;;;;;;;1.52;1.42;;;;;;;;;;5043666;28;20436;-76
2021/11/29 05:35:24;;;;;;;1.45;0.93;;;;;;;;;;5039832;28;20090;-77
2021/11/29 05:37:49;;;;;;;1.40;1.35;;;;;;;;;;5033482;28;20159;-77
2021/11/29 05:40:15;;;;;;;2.28;0.93;;;;;;;;;;5043762;28;20159;-78
2021/11/29 05:42:41;;;;;;;4.03;2.08;;;;;;;;;;5044273;28;20157;-77
2021/11/29 05:45:08;;;;;;;4.20;3.22;;;;;;;;;;5041040;28;20020;-77
2021/11/29 05:47:34;;;;;;;6.72;2.60;;;;;;;;;;5041250;28;20053;-77
2021/11/29 05:50:00;;;;;;;0.22;0.22;;;;;;;;;;5036732;28;20026;-77
2021/11/29 05:52:26;;;;;;;0.55;0.55;;;;;;;;;;5032594;28;20084;-77
2021/11/29 05:54:52;;;;;;;6.60;2.20;;;;;;;;;;5035370;28;20036;-76
2021/11/29 05:57:18;;;;;;;0.55;0.45;;;;;;;;;;5032198;28;20060;-77
2021/11/29 05:59:44;;;;;;;1.20;1.20;;;;;;;;;;5039478;28;20052;-76
2021/11/29 06:02:10;;;;;;;2.58;2.08;;;;;;;;;;5039699;28;20033;-76
2021/11/29 06:04:36;;;;;;;1.00;0.95;;;;;;;;;;5050833;28;20472;-75
2021/11/29 06:07:02;;;;;;;1.58;1.48;;;;;;;;;;5036612;28;20025;-76
2021/11/29 06:09:28;;;;;;;0.40;0.40;;;;;;;;;;5031138;28;20022;-74
2021/11/29 06:11:54;;;;;;;0.70;0.70;;;;;;;;;;5040096;28;20083;-74
2021/11/29 06:14:20;;;;;;;0.50;0.50;;;;;;;;;;5041155;28;20419;-76
2021/11/29 06:16:46;;;;;;;0.82;0.82;;;;;;;;;;5032349;28;20029;-75
2021/11/29 06:19:12;;;;;;;1.15;1.02;;;;;;;;;;5035969;28;20151;-76
2021/11/29 06:21:38;;;;;;;2.25;2.03;;;;;;;;;;5040644;28;20191;-76
2021/11/29 06:24:04;;;;;;;1.73;1.63;;;;;;;;;;5039533;28;20029;-76
2021/11/29 06:26:30;;;;;;;9.38;1.13;;;;;;;;;;5031619;28;20025;-76
2021/11/29 06:28:56;;;;;;;1.25;1.08;;;;;;;;;;5033124;28;20028;-76
2021/11/29 06:31:22;;;;;;;0.57;0.57;;;;;;;;;;5037034;28;20048;-76
2021/11/29 06:33:48;;;;;;;0.40;0.35;;;;;;;;;;5040049;28;20036;-76
2021/11/29 06:36:14;;;;;;;0.43;0.43;;;;;;;;;;5034312;28;20450;-76
2021/11/29 06:38:40;;;;;;;1.17;1.08;;;;;;;;;;5038608;28;20040;-76
2021/11/29 06:41:06;;;;;;;3.00;1.45;;;;;;;;;;5041630;28;20025;-76
2021/11/29 06:43:32;;;;;;;0.40;0.40;;;;;;;;;;5045828;28;20033;-77
2021/11/29 06:45:58;;;;;;;1.13;1.02;;;;;;;;;;5043221;28;20124;-76
2021/11/29 06:48:24;;;;;;;0.40;0.40;;;;;;;;;;5042195;28;20031;-76
2021/11/29 06:50:51;;;;;;;1.75;1.23;;;;;;;;;;5043916;28;20477;-76
2021/11/29 06:53:17;;;;;;;1.40;1.23;;;;;;;;;;5044490;28;20029;-77
2021/11/29 06:55:46;;;;;;;0.50;0.50;;;;;;;;;;5037761;28;20033;-76
2021/11/29 06:58:12;;;;;;;1.17;1.08;;;;;;;;;;5042486;28;20033;-76
2021/11/29 07:00:38;;;;;;;1.27;1.17;;;;;;;;;;5042910;28;20095;-76
2021/11/29 07:03:04;;;;;;;1.85;1.27;;;;;;;;;;5043071;28;20029;-76
2021/11/29 07:05:29;;;;;;;0.95;0.80;;;;;;;;;;5047526;28;20112;-76
2021/11/29 07:07:56;;;;;;;3.45;2.38;;;;;;;;;;5045864;28;20028;-76
2021/11/29 07:10:28;;;;;;;1.65;1.55;;;;;;;;;;5045098;28;20361;-77
2021/11/29 07:12:54;;;;;;;1.50;1.42;;;;;;;;;;5044737;28;20028;-77
2021/11/29 07:15:21;;;;;;;2.88;1.38;;;;;;;;;;5045775;28;20098;-76
2021/11/29 07:17:47;;;;;;;4.18;2.25;;;;;;;;;;5046130;28;20039;-76
2021/11/29 07:20:13;;;;;;;6.65;1.63;;;;;;;;;;5043866;28;20055;-76
2021/11/29 07:22:42;;;;;;;0.32;0.32;;;;;;;;;;5045093;28;20483;-77
2021/11/29 07:25:08;;;;;;;1.42;1.23;;;;;;;;;;5032396;28;20063;-77
2021/11/29 07:27:34;;;;;;;1.02;1.00;;;;;;;;;;5035414;28;20025;-78
2021/11/29 07:30:01;;;;;;;2.20;2.10;;;;;;;;;;5039533;28;20447;-76
2021/11/29 07:32:29;;;;;;;0.17;0.17;;;;;;;;;;5044199;28;20707;-75
2021/11/29 07:34:56;;;;;;;1.83;1.08;;;;;;;;;;5034528;28;20494;-75
2021/11/29 07:37:22;;;;;;;2.80;1.50;;;;;;;;;;5036279;28;20109;-75
2021/11/29 07:39:48;;;;;;;0.65;0.40;;;;;;;;;;5039262;28;20044;-75
2021/11/29 07:42:15;;;;;;;1.65;0.90;;;;;;;;;;5049097;28;20036;-73
2021/11/29 07:44:42;;;;;;;1.73;0.93;;;;;;;;;;5046883;28;20061;-73
2021/11/29 07:47:08;;;;;;;0.28;0.28;;;;;;;;;;5047665;28;20100;-73
2021/11/29 07:49:34;;;;;;;1.35;1.25;;;;;;;;;;5033995;28;20025;-73
2021/11/29 07:52:00;;;;;;;2.10;1.40;;;;;;;;;;5036462;28;20455;-73
2021/11/29 07:54:26;;;;;;;0.68;0.55;;;;;;;;;;5043287;28;20036;-73
2021/11/29 07:56:52;;;;;;;0.55;0.55;;;;;;;;;;5041794;28;20037;-72
2021/11/29 07:59:18;;;;;;;0.77;0.77;;;;;;;;;;5033945;28;20021;-73
2021/11/29 08:01:44;;;;;;;0.93;0.93;;;;;;;;;;5033823;28;20033;-75
2021/11/29 08:04:10;;;;;;;0.30;0.30;;;;;;;;;;5034423;28;20024;-74
2021/11/29 08:06:38;;;;;;;0.10;0.10;;;;;;;;;;5038561;28;20022;-75
2021/11/29 08:09:04;;;;;;;1.38;1.23;;;;;;;;;;5032365;28;20044;-75
2021/11/29 08:11:30;;;;;;;3.38;1.13;;;;;;;;;;5034345;28;20065;-74
2021/11/29 08:13:56;;;;;;;6.50;1.75;;;;;;;;;;5035601;28;20488;-76
2021/11/29 08:16:22;;;;;;;0.68;0.65;;;;;;;;;;5042199;28;20376;-75
2021/11/29 08:18:48;;;;;;;0.50;0.50;;;;;;;;;;5039285;28;20110;-76
2021/11/29 08:21:15;;;;;;;0.55;0.55;;;;;;;;;;5032047;28;20050;-76
2021/11/29 08:23:41;;;;;;;1.63;1.48;;;;;;;;;;5034690;28;20120;-77
2021/11/29 08:26:07;;;;;;;2.17;1.02;;;;;;;;;;5033686;28;20108;-74
2021/11/29 08:28:33;;;;;;;1.30;0.80;;;;;;;;;;5046084;28;20029;-72
2021/11/29 08:30:59;;;;;;;1.55;1.20;;;;;;;;;;5042385;28;20426;-73
2021/11/29 08:33:26;;;;;;;2.10;1.92;;;;;;;;;;5039391;28;20033;-74
2021/11/29 08:35:52;;;;;;;1.35;1.27;;;;;;;;;;5046213;28;20462;-74
2021/11/29 08:38:18;;;;;;;2.35;1.20;;;;;;;;;;5034750;28;20116;-73
2021/11/29 08:40:46;;;;;;;0.88;0.60;;;;;;;;;;5033084;28;20030;-74
2021/11/29 08:43:13;;;;;;;0.50;0.50;;;;;;;;;;5043672;28;20039;-73
2021/11/29 08:45:39;;;;;;;0.40;0.40;;;;;;;;;;5042510;28;20125;-74
2021/11/29 08:48:06;;;;;;;0.45;0.43;;;;;;;;;;5041245;28;20032;-74
2021/11/29 08:50:33;;;;;;;2.25;2.05;;;;;;;;;;5052817;28;20025;-72
2021/11/29 08:53:00;;;;;;;2.15;1.60;;;;;;;;;;5051189;28;20427;-71
2021/11/29 08:55:25;;;;;;;0.32;0.32;;;;;;;;;;5043422;28;20031;-73
2021/11/29 08:57:51;;;;;;;2.25;1.48;;;;;;;;;;5036733;28;20029;-73
2021/11/29 09:00:19;;;;;;;2.58;2.35;;;;;;;;;;5036141;28;20053;-74
2021/11/29 09:02:45;;;;;;;0.68;0.68;;;;;;;;;;5035498;28;20472;-72
2021/11/29 09:05:12;;;;;;;0.60;0.60;;;;;;;;;;5049865;28;20068;-74
2021/11/29 09:07:38;;;;;;;2.63;1.08;;;;;;;;;;5037290;28;20079;-74
2021/11/29 09:10:05;;;;;;;0.28;0.28;;;;;;;;;;5030122;28;20025;-73
2021/11/29 09:12:31;;;;;;;1.30;1.30;;;;;;;;;;5033574;28;20494;-74
2021/11/29 09:14:57;;;;;;;0.50;0.50;;;;;;;;;;5032952;28;20256;-73
2021/11/29 09:17:23;;;;;;;3.50;1.80;;;;;;;;;;5047372;28;20484;-74
2021/11/29 09:19:49;;;;;;;1.10;1.02;;;;;;;;;;5040604;28;20040;-73
2021/11/29 09:22:15;;;;;;;1.10;1.10;;;;;;;;;;5042061;28;20064;-74
2021/11/29 09:24:41;;;;;;;1.35;1.25;;;;;;;;;;5039927;28;20112;-73
2021/11/29 09:27:07;;;;;;;0.77;0.73;;;;;;;;;;5041850;28;20098;-73
2021/11/29 09:29:33;;;;;;;0.60;0.60;;;;;;;;;;5043464;28;20038;-74
2021/11/29 09:31:59;;;;;;;5.82;2.05;;;;;;;;;;5050836;28;20053;-75
2021/11/29 09:34:25;;;;;;;1.75;1.65;;;;;;;;;;5031299;28;20033;-72
2021/11/29 09:36:51;;;;;;;1.55;1.30;;;;;;;;;;5031503;28;20112;-73
2021/11/29 09:39:17;;;;;;;2.45;2.28;;;;;;;;;;5036848;28;20024;-72
2021/11/29 09:41:43;;;;;;;1.13;1.05;;;;;;;;;;5051294;28;20039;-73
2021/11/29 09:44:09;;;;;;;3.35;0.82;;;;;;;;;;5036013;28;20030;-72
2021/11/29 09:46:35;;;;;;;1.70;1.10;;;;;;;;;;5033677;28;20494;-72
2021/11/29 09:49:02;;;;;;;3.65;3.35;;;;;;;;;;5040312;28;20025;-73
2021/11/29 09:51:28;;;;;;;1.52;1.42;;;;;;;;;;5047943;28;20036;-73
2021/11/29 09:53:54;;;;;;;0.93;0.85;;;;;;;;;;5032621;28;20109;-72
2021/11/29 09:56:20;;;;;;;1.08;1.08;;;;;;;;;;5046764;28;20045;-71
2021/11/29 09:58:47;;;;;;;0.28;0.17;;;;;;;;;;5034610;28;20050;-71
2021/11/29 10:01:14;;;;;;;1.73;1.40;;;;;;;;;;5041380;28;20017;-70
2021/11/29 10:03:40;;;;;;;0.95;0.95;;;;;;;;;;5051611;28;20021;-73
2021/11/29 10:06:06;;;;;;;0.40;0.40;;;;;;;;;;5029844;28;20602;-73
2021/11/29 10:08:35;;;;;;;0.55;0.55;;;;;;;;;;5048074;28;20029;-72
2021/11/29 10:11:06;;;;;;;0.77;0.60;;;;;;;;;;5034285;28;20021;-71
2021/11/29 10:13:49;;;;;;;3.63;1.27;;;;;;;;;;5031361;28;20116;-71
2021/11/29 10:16:29;;;;;;;0.70;0.63;;;;;;;;;;5031102;28;20040;-71
2021/11/29 10:18:55;;;;;;;0.60;0.60;;;;;;;;;;5047947;28;20376;-72
2021/11/29 10:21:21;;;;;;;0.10;0.10;;;;;;;;;;5034718;28;20051;-72
2021/11/29 10:23:48;;;;;;;1.00;0.98;;;;;;;;;;5044197;28;20022;-74
2021/11/29 10:26:17;;;;;;;1.08;1.08;;;;;;;;;;5051004;28;20024;-73
2021/11/29 10:28:44;;;;;;;0.47;0.47;;;;;;;;;;5031830;28;20116;-72
2021/11/29 10:31:24;;;;;;;1.00;0.70;;;;;;;;;;5042479;28;20375;-73
2021/11/29 10:33:52;;;;;;;1.30;1.20;;;;;;;;;;5045518;28;20112;-72
2021/11/29 10:36:19;;;;;;;1.10;0.88;;;;;;;;;;5031068;28;20108;-73
2021/11/29 10:38:49;;;;;;;1.73;1.48;;;;;;;;;;5030454;28;20022;-73
2021/11/29 10:41:19;;;;;;;0.55;0.55;;;;;;;;;;5032022;28;20029;-73
2021/11/29 10:43:45;;;;;;;1.65;0.82;;;;;;;;;;5030205;28;20108;-73
2021/11/29 10:46:25;;;;;;;0.43;0.43;;;;;;;;;;5030405;28;20105;-72
2021/11/29 10:48:52;;;;;;;3.17;1.30;;;;;;;;;;5030464;28;20021;-73
2021/11/29 10:51:20;;;;;;;0.60;0.35;;;;;;;;;;5033499;28;20044;-73
2021/11/29 10:53:48;;;;;;;1.65;1.45;;;;;;;;;;5029784;28;20029;-73
2021/11/29 10:56:15;;;;;;;0.10;0.10;;;;;;;;;;5031393;28;20072;-73
2021/11/29 10:58:46;;;;;;;0.38;0.38;;;;;;;;;;5040637;28;20486;-73
2021/11/29 11:01:14;;;;;;;0.50;0.50;;;;;;;;;;5047164;28;20033;-73
2021/11/29 11:03:54;;;;;;;0.40;0.40;;;;;;;;;;5029860;28;20029;-73
2021/11/29 11:06:32;;;;;;;1.65;1.08;;;;;;;;;;5037342;28;20567;-73
2021/11/29 11:08:58;;;;;;;1.15;0.82;;;;;;;;;;5055986;28;20114;-72
2021/11/29 11:11:29;;;;;;;1.38;1.25;;;;;;;;;;5045300;28;20024;-73
2021/11/29 11:13:59;;;;;;;0.25;0.25;;;;;;;;;;5049532;28;20045;-73
2021/11/29 11:16:38;;;;;;;0.55;0.55;;;;;;;;;;5043281;28;20031;-73
2021/11/29 11:19:04;;;;;;;1.00;0.68;;;;;;;;;;5049738;28;20021;-73
2021/11/29 11:21:33;;;;;;;0.85;0.82;;;;;;;;;;5039979;28;20502;-72
2021/11/29 11:24:18;;;;;;;1.20;1.05;;;;;;;;;;5031745;28;20566;-72
2021/11/29 11:26:45;;;;;;;0.20;0.20;;;;;;;;;;5038269;28;20036;-72
2021/11/29 11:29:15;;;;;;;0.20;0.20;;;;;;;;;;5039422;28;20472;-72
2021/11/29 11:31:41;;;;;;;4.40;1.48;;;;;;;;;;5034284;28;20125;-73
2021/11/29 11:34:08;;;;;;;5.13;1.35;;;;;;;;;;5034249;28;20104;-72
2021/11/29 11:36:34;;;;;;;1.80;1.38;;;;;;;;;;5037737;28;20020;-73
2021/11/29 11:39:06;;;;;;;0.98;0.93;;;;;;;;;;5030479;28;20033;-72
2021/11/29 11:41:33;;;;;;;0.60;0.60;;;;;;;;;;5041619;28;20037;-73
2021/11/29 11:44:00;;;;;;;0.75;0.75;;;;;;;;;;5034450;28;20029;-73
2021/11/29 11:46:27;;;;;;;1.90;1.80;;;;;;;;;;5044106;28;20021;-73
2021/11/29 11:48:54;;;;;;;0.00;0.00;;;;;;;;;;5032026;28;20052;-73
2021/11/29 11:51:20;;;;;;;0.15;0.15;;;;;;;;;;5043980;28;20032;-73
2021/11/29 11:53:46;;;;;;;0.55;0.55;;;;;;;;;;5045763;28;20025;-73
2021/11/29 11:56:12;;;;;;;0.90;0.90;;;;;;;;;;5035170;28;20820;-73
2021/11/29 11:58:49;;;;;;;0.77;0.63;;;;;;;;;;5033604;28;20431;-73
2021/11/29 12:01:17;;;;;;;0.00;0.00;;;;;;;;;;5034144;28;20029;-73
2021/11/29 12:03:47;;;;;;;0.75;0.65;;;;;;;;;;5041284;28;20794;-73
2021/11/29 12:06:16;;;;;;;0.25;0.25;;;;;;;;;;5041088;28;20404;-73
2021/11/29 12:08:43;;;;;;;0.00;0.00;;;;;;;;;;5036029;28;20250;-73
2021/11/29 12:11:29;;;;;;;0.75;0.75;;;;;;;;;;5031852;28;20124;-72
2021/11/29 12:14:14;;;;;;;0.13;0.13;;;;;;;;;;5036125;28;20036;-72
2021/11/29 12:16:43;;;;;;;0.65;0.65;;;;;;;;;;5039077;28;20098;-73
2021/11/29 12:19:24;;;;;;;0.85;0.32;;;;;;;;;;5035662;28;20648;-73
2021/11/29 12:21:51;;;;;;;0.57;0.57;;;;;;;;;;5030611;28;20068;-71
2021/11/29 12:24:21;;;;;;;0.10;0.10;;;;;;;;;;5039700;28;20060;-75
2021/11/29 12:26:47;;;;;;;1.63;0.95;;;;;;;;;;5038229;28;20114;-74
2021/11/29 12:29:25;;;;;;;0.20;0.20;;;;;;;;;;5036678;28;20159;-74
2021/11/29 12:32:00;;;;;;;0.45;0.45;;;;;;;;;;5039388;28;20163;-72
2021/11/29 12:34:48;;;;;;;1.23;1.10;;;;;;;;;;5036716;28;20048;-74
2021/11/29 12:37:25;;;;;;;1.70;0.73;;;;;;;;;;5030374;28;20725;-71
2021/11/29 12:40:06;;;;;;;1.05;1.05;;;;;;;;;;5032114;28;20136;-71
2021/11/29 12:42:34;;;;;;;0.65;0.65;;;;;;;;;;5040595;28;20029;-73
2021/11/29 12:45:04;;;;;;;0.30;0.30;;;;;;;;;;5041751;28;20025;-73
2021/11/29 12:47:46;;;;;;;2.03;0.82;;;;;;;;;;5033005;28;20071;-70
2021/11/29 12:50:34;;;;;;;1.08;0.45;;;;;;;;;;5033572;28;20632;-70
2021/11/29 12:53:11;;;;;;;0.08;0.08;;;;;;;;;;5032097;28;20535;-72
2021/11/29 12:55:37;;;;;;;0.32;0.32;;;;;;;;;;5033890;28;20029;-73
2021/11/29 12:58:07;;;;;;;0.17;0.17;;;;;;;;;;5036973;28;20386;-71
2021/11/29 13:00:34;;;;;;;0.20;0.20;;;;;;;;;;5041317;28;20033;-72
2021/11/29 13:03:01;;;;;;;0.10;0.10;;;;;;;;;;5038973;28;20021;-72
2021/11/29 13:05:35;;;;;;;0.10;0.10;;;;;;;;;;5046309;28;20053;-73
2021/11/29 13:08:06;;;;;;;0.10;0.10;;;;;;;;;;5032225;28;20419;-73
2021/11/29 13:10:51;;;;;;;0.55;0.55;;;;;;;;;;5030989;28;20045;-72
2021/11/29 13:13:26;;;;;;;0.00;0.00;;;;;;;;;;5033506;28;20028;-72
2021/11/29 13:15:53;;;;;;;0.00;0.00;;;;;;;;;;5029432;28;20055;-74
2021/11/29 13:18:38;;;;;;;0.43;0.43;;;;;;;;;;5044503;28;20037;-73
2021/11/29 13:21:04;;;;;;;0.20;0.20;;;;;;;;;;5038610;28;20056;-74
2021/11/29 13:23:30;;;;;;;3.92;0.47;;;;;;;;;;5032024;28;20464;-73
2021/11/29 13:26:04;;;;;;;0.10;0.10;;;;;;;;;;5030481;28;20018;-74
2021/11/29 13:28:30;;;;;;;0.20;0.20;;;;;;;;;;5033827;28;20032;-73
2021/11/29 13:30:56;;;;;;;0.52;0.52;;;;;;;;;;5032170;28;20029;-74
2021/11/29 13:33:22;;;;;;;0.20;0.20;;;;;;;;;;5031951;28;20472;-74
2021/11/29 13:35:48;;;;;;;0.17;0.17;;;;;;;;;;5031609;28;20025;-73
2021/11/29 13:38:14;;;;;;;0.20;0.20;;;;;;;;;;5031733;28;20032;-73
2021/11/29 13:40:40;;;;;;;1.10;0.50;;;;;;;;;;5031615;28;20037;-73
2021/11/29 13:43:06;;;;;;;0.40;0.40;;;;;;;;;;5041420;28;20086;-74
2021/11/29 13:45:33;;;;;;;0.25;0.25;;;;;;;;;;5031602;28;20083;-73
2021/11/29 13:48:09;;;;;;;1.33;0.40;;;;;;;;;;5031743;28;20045;-73
2021/11/29 13:50:39;;;;;;;0.35;0.35;;;;;;;;;;5031700;28;20071;-73
2021/11/29 13:53:14;;;;;;;0.28;0.28;;;;;;;;;;5031702;28;20103;-74
2021/11/29 13:55:44;;;;;;;1.15;0.38;;;;;;;;;;5046671;28;20036;-73
2021/11/29 13:58:13;;;;;;;0.10;0.10;;;;;;;;;;5031149;28;20025;-73
2021/11/29 14:00:41;;;;;;;0.32;0.32;;;;;;;;;;5031181;28;20090;-73
2021/11/29 14:03:07;;;;;;;0.52;0.45;;;;;;;;;;5032159;28;20040;-73
2021/11/29 14:05:38;;;;;;;0.32;0.32;;;;;;;;;;5031219;28;20017;-73
2021/11/29 14:08:08;;;;;;;0.85;0.65;;;;;;;;;;5031260;28;20117;-73
2021/11/29 14:10:34;;;;;;;0.20;0.20;;;;;;;;;;5041507;28;20028;-74
2021/11/29 14:13:00;;;;;;;0.17;0.17;;;;;;;;;;5031006;28;20059;-75
2021/11/29 14:15:30;;;;;;;0.30;0.30;;;;;;;;;;5032951;28;20615;-74
2021/11/29 14:17:57;;;;;;;1.50;1.40;;;;;;;;;;5041665;28;20021;-74
2021/11/29 14:20:25;;;;;;;0.15;0.15;;;;;;;;;;5030818;28;20057;-73
2021/11/29 14:22:51;;;;;;;0.43;0.43;;;;;;;;;;5030891;28;20049;-73
2021/11/29 14:25:18;;;;;;;0.60;0.45;;;;;;;;;;5031162;28;20108;-74
2021/11/29 14:27:44;;;;;;;0.10;0.10;;;;;;;;;;5035050;28;20025;-74
2021/11/29 14:30:10;;;;;;;0.28;0.28;;;;;;;;;;5040052;28;20149;-73
2021/11/29 14:32:36;;;;;;;0.15;0.15;;;;;;;;;;5035914;28;20457;-73
2021/11/29 14:35:02;;;;;;;0.55;0.30;;;;;;;;;;5033837;28;20045;-74
2021/11/29 14:37:32;;;;;;;0.40;0.40;;;;;;;;;;5034173;28;20045;-72
2021/11/29 14:40:03;;;;;;;2.13;1.23;;;;;;;;;;5039830;28;20723;-72
2021/11/29 14:42:31;;;;;;;0.95;0.52;;;;;;;;;;5034596;28;20076;-72
2021/11/29 14:44:57;;;;;;;0.35;0.35;;;;;;;;;;5032520;28;20159;-72